createdAt,value
2019-03-13T00:00:36.622Z,0.00
2019-03-13T00:01:35.558Z,0.00
2019-03-13T00:02:37.662Z,0.00
2019-03-13T00:03:35.561Z,0.00
2019-03-13T00:04:35.529Z,0.00
2019-03-13T00:05:35.641Z,0.00
2019-03-13T00:06:35.514Z,0.00
2019-03-13T00:07:35.606Z,0.00
2019-03-13T00:08:35.501Z,0.00
2019-03-13T00:09:35.492Z,0.00
2019-03-13T00:10:35.582Z,0.00
2019-03-13T00:11:35.456Z,0.00
2019-03-13T00:12:35.513Z,0.00
2019-03-13T00:13:35.445Z,0.00
2019-03-13T00:14:35.414Z,0.00
2019-03-13T00:15:35.404Z,0.00
2019-03-13T00:16:35.485Z,0.00
2019-03-13T00:17:35.385Z,0.00
2019-03-13T00:18:35.466Z,0.00
2019-03-13T00:19:35.366Z,0.00
2019-03-13T00:20:35.346Z,0.00
2019-03-13T00:21:37.378Z,0.00
2019-03-13T00:22:35.326Z,0.00
2019-03-13T00:23:35.409Z,0.00
2019-03-13T00:24:35.309Z,0.00
2019-03-13T00:25:35.309Z,0.00
2019-03-13T00:26:35.280Z,0.00
2019-03-13T00:27:35.339Z,0.00
2019-03-13T00:28:35.289Z,0.00
2019-03-13T00:29:36.290Z,0.00
2019-03-13T00:30:35.253Z,0.00
2019-03-13T00:31:36.331Z,0.00
2019-03-13T00:32:35.211Z,0.00
2019-03-13T00:33:35.292Z,0.00
2019-03-13T00:34:35.203Z,0.00
2019-03-13T00:35:35.283Z,0.00
2019-03-13T00:36:35.184Z,0.00
2019-03-13T00:37:35.215Z,0.00
2019-03-13T00:38:35.177Z,0.00
2019-03-13T00:39:35.244Z,0.00
2019-03-13T00:40:35.134Z,0.00
2019-03-13T00:41:35.126Z,0.00
2019-03-13T00:42:35.105Z,0.00
2019-03-13T00:43:35.156Z,0.00
2019-03-13T00:44:35.079Z,0.00
2019-03-13T00:45:42.937Z,0.00
2019-03-13T00:46:35.060Z,0.00
2019-03-13T00:47:37.138Z,0.00
2019-03-13T00:48:35.049Z,0.00
2019-03-13T00:49:36.048Z,0.00
2019-03-13T00:50:35.021Z,0.00
2019-03-13T00:51:37.005Z,0.00
2019-03-13T00:52:35.030Z,0.00
2019-03-13T00:53:34.991Z,0.00
2019-03-13T00:54:35.063Z,0.00
2019-03-13T00:55:34.951Z,0.00
2019-03-13T00:56:35.002Z,0.00
2019-03-13T00:57:34.932Z,0.00
2019-03-13T00:58:34.983Z,0.00
2019-03-13T00:59:34.924Z,0.00
2019-03-13T01:00:34.974Z,0.00
2019-03-13T01:01:34.894Z,0.00
2019-03-13T01:02:34.906Z,0.00
2019-03-13T01:03:34.864Z,0.00
2019-03-13T01:04:34.885Z,0.00
2019-03-13T01:05:34.845Z,0.00
2019-03-13T01:06:35.898Z,0.00
2019-03-13T01:07:34.827Z,0.00
2019-03-13T01:08:34.837Z,0.00
2019-03-13T01:09:34.827Z,0.00
2019-03-13T01:10:34.858Z,0.00
2019-03-13T01:11:34.789Z,0.00
2019-03-13T01:12:34.789Z,0.00
2019-03-13T01:13:34.770Z,0.00
2019-03-13T01:14:35.800Z,0.00
2019-03-13T01:15:34.741Z,0.00
2019-03-13T01:16:34.763Z,0.00
2019-03-13T01:17:34.720Z,0.00
2019-03-13T01:18:34.801Z,0.00
2019-03-13T01:19:34.712Z,0.00
2019-03-13T01:20:34.732Z,0.00
2019-03-13T01:21:34.672Z,0.00
2019-03-13T01:22:35.698Z,0.00
2019-03-13T01:23:34.654Z,0.00
2019-03-13T01:24:34.654Z,0.00
2019-03-13T01:25:34.634Z,0.00
2019-03-13T01:26:34.645Z,0.00
2019-03-13T01:27:34.595Z,0.00
2019-03-13T01:28:41.436Z,0.00
2019-03-13T01:29:34.607Z,0.00
2019-03-13T01:30:42.495Z,0.00
2019-03-13T01:31:34.560Z,0.00
2019-03-13T01:32:34.647Z,0.00
2019-03-13T01:33:34.528Z,0.00
2019-03-13T01:34:34.631Z,0.00
2019-03-13T01:35:35.581Z,0.00
2019-03-13T01:36:34.498Z,0.00
2019-03-13T01:37:34.589Z,0.00
2019-03-13T01:38:34.479Z,0.00
2019-03-13T01:39:34.570Z,0.00
2019-03-13T01:40:34.453Z,0.00
2019-03-13T01:41:34.461Z,0.00
2019-03-13T01:42:34.435Z,0.00
2019-03-13T01:43:34.491Z,0.00
2019-03-13T01:44:34.423Z,0.00
2019-03-13T01:45:34.438Z,0.00
2019-03-13T01:46:34.385Z,0.00
2019-03-13T01:47:34.466Z,0.00
2019-03-13T01:48:34.365Z,0.00
2019-03-13T01:49:36.394Z,0.00
2019-03-13T01:50:34.345Z,0.00
2019-03-13T01:51:34.335Z,0.00
2019-03-13T01:52:34.335Z,0.00
2019-03-13T01:53:34.376Z,0.00
2019-03-13T01:54:34.318Z,0.00
2019-03-13T01:55:34.307Z,0.00
2019-03-13T01:56:34.289Z,0.00
2019-03-13T01:57:34.347Z,0.00
2019-03-13T01:58:34.249Z,0.00
2019-03-13T01:59:35.361Z,0.00
2019-03-13T02:00:34.240Z,0.00
2019-03-13T02:01:35.251Z,0.00
2019-03-13T02:02:35.310Z,0.00
2019-03-13T02:03:34.213Z,0.00
2019-03-13T02:04:37.567Z,0.00
2019-03-13T02:05:34.182Z,0.00
2019-03-13T02:06:34.263Z,0.00
2019-03-13T02:07:34.162Z,0.00
2019-03-13T02:08:34.192Z,0.00
2019-03-13T02:09:34.153Z,0.00
2019-03-13T02:10:34.126Z,0.00
2019-03-13T02:11:34.104Z,0.00
2019-03-13T02:12:41.027Z,0.00
2019-03-13T02:13:34.085Z,0.00
2019-03-13T02:14:34.145Z,0.00
2019-03-13T02:15:34.066Z,0.00
2019-03-13T02:16:34.136Z,0.00
2019-03-13T02:17:34.036Z,0.00
2019-03-13T02:18:34.033Z,0.00
2019-03-13T02:19:38.487Z,0.00
2019-03-13T02:20:34.011Z,0.00
2019-03-13T02:21:34.078Z,0.00
2019-03-13T02:22:33.988Z,0.00
2019-03-13T02:23:33.969Z,0.00
2019-03-13T02:24:33.979Z,0.00
2019-03-13T02:25:34.052Z,0.00
2019-03-13T02:26:33.941Z,0.00
2019-03-13T02:27:35.010Z,0.00
2019-03-13T02:28:33.921Z,0.00
2019-03-13T02:29:33.921Z,0.00
2019-03-13T02:30:34.914Z,0.00
2019-03-13T02:31:33.884Z,0.00
2019-03-13T02:32:33.922Z,0.00
2019-03-13T02:33:33.871Z,0.00
2019-03-13T02:34:33.863Z,0.00
2019-03-13T02:35:33.834Z,0.00
2019-03-13T02:36:33.899Z,0.00
2019-03-13T02:37:33.827Z,0.00
2019-03-13T02:38:35.886Z,0.00
2019-03-13T02:39:33.856Z,0.00
2019-03-13T02:40:33.798Z,0.00
2019-03-13T02:41:33.847Z,0.00
2019-03-13T02:42:33.769Z,0.00
2019-03-13T02:43:33.780Z,0.00
2019-03-13T02:44:33.758Z,0.00
2019-03-13T02:45:33.822Z,0.00
2019-03-13T02:46:33.729Z,0.00
2019-03-13T02:47:33.749Z,0.00
2019-03-13T02:48:33.701Z,0.00
2019-03-13T02:49:33.733Z,0.00
2019-03-13T02:50:33.690Z,0.00
2019-03-13T02:51:33.721Z,0.00
2019-03-13T02:52:33.662Z,0.00
2019-03-13T02:53:33.652Z,0.00
2019-03-13T02:54:33.653Z,0.00
2019-03-13T02:55:33.633Z,0.00
2019-03-13T02:56:33.613Z,0.00
2019-03-13T02:57:35.684Z,0.00
2019-03-13T02:58:33.596Z,0.00
2019-03-13T02:59:36.975Z,0.00
2019-03-13T03:00:37.419Z,0.00
2019-03-13T03:01:33.546Z,0.00
2019-03-13T03:02:33.567Z,0.00
2019-03-13T03:03:33.526Z,0.00
2019-03-13T03:04:33.547Z,0.00
2019-03-13T03:05:33.497Z,0.00
2019-03-13T03:06:33.487Z,0.00
2019-03-13T03:07:33.479Z,0.00
2019-03-13T03:08:33.579Z,0.00
2019-03-13T03:09:33.469Z,0.00
2019-03-13T03:10:33.513Z,0.00
2019-03-13T03:11:33.479Z,0.00
2019-03-13T03:12:33.418Z,0.00
2019-03-13T03:13:33.511Z,0.00
2019-03-13T03:14:33.412Z,0.00
2019-03-13T03:15:35.492Z,0.00
2019-03-13T03:16:33.410Z,0.00
2019-03-13T03:17:33.438Z,0.00
2019-03-13T03:18:40.002Z,0.00
2019-03-13T03:19:33.373Z,0.00
2019-03-13T03:20:33.388Z,0.00
2019-03-13T03:21:33.323Z,0.00
2019-03-13T03:22:33.315Z,0.00
2019-03-13T03:23:33.385Z,0.00
2019-03-13T03:24:33.318Z,0.00
2019-03-13T03:25:33.324Z,0.00
2019-03-13T03:26:33.295Z,0.00
2019-03-13T03:27:33.267Z,0.00
2019-03-13T03:28:33.256Z,0.00
2019-03-13T03:29:33.356Z,0.00
2019-03-13T03:30:33.241Z,0.00
2019-03-13T03:31:35.310Z,0.00
2019-03-13T03:32:33.209Z,0.00
2019-03-13T03:33:33.203Z,0.00
2019-03-13T03:34:33.290Z,0.00
2019-03-13T03:35:33.171Z,0.00
2019-03-13T03:36:33.189Z,0.00
2019-03-13T03:37:33.151Z,0.00
2019-03-13T03:38:33.144Z,0.00
2019-03-13T03:39:33.236Z,0.00
2019-03-13T03:40:33.174Z,0.00
2019-03-13T03:41:33.111Z,0.00
2019-03-13T03:42:33.109Z,0.00
2019-03-13T03:43:40.384Z,0.00
2019-03-13T03:44:34.076Z,0.00
2019-03-13T03:45:33.133Z,0.00
2019-03-13T03:46:33.035Z,0.00
2019-03-13T03:47:33.124Z,0.00
2019-03-13T03:48:33.014Z,0.00
2019-03-13T03:49:33.001Z,0.00
2019-03-13T03:50:33.007Z,0.00
2019-03-13T03:51:34.017Z,0.00
2019-03-13T03:52:32.966Z,0.00
2019-03-13T03:53:33.039Z,0.00
2019-03-13T03:54:32.999Z,0.00
2019-03-13T03:55:32.949Z,0.00
2019-03-13T03:56:33.039Z,0.00
2019-03-13T03:57:32.919Z,0.00
2019-03-13T03:58:32.970Z,0.00
2019-03-13T03:59:32.889Z,0.00
2019-03-13T04:00:32.950Z,0.00
2019-03-13T04:01:32.869Z,0.00
2019-03-13T04:02:32.943Z,0.00
2019-03-13T04:03:32.875Z,0.00
2019-03-13T04:04:34.933Z,0.00
2019-03-13T04:05:32.844Z,0.00
2019-03-13T04:06:32.922Z,0.00
2019-03-13T04:07:32.803Z,0.00
2019-03-13T04:08:37.590Z,0.00
2019-03-13T04:09:32.794Z,0.00
2019-03-13T04:10:32.795Z,0.00
2019-03-13T04:11:32.765Z,0.00
2019-03-13T04:12:32.824Z,0.00
2019-03-13T04:13:32.755Z,0.00
2019-03-13T04:14:39.510Z,0.00
2019-03-13T04:15:32.740Z,0.00
2019-03-13T04:16:32.796Z,0.00
2019-03-13T04:17:32.699Z,0.00
2019-03-13T04:18:33.756Z,0.00
2019-03-13T04:19:32.679Z,0.00
2019-03-13T04:20:38.039Z,0.00
2019-03-13T04:21:32.651Z,0.00
2019-03-13T04:22:33.729Z,0.00
2019-03-13T04:23:32.625Z,0.00
2019-03-13T04:24:39.506Z,0.00
2019-03-13T04:25:32.609Z,0.00
2019-03-13T04:26:32.601Z,0.00
2019-03-13T04:27:32.583Z,0.00
2019-03-13T04:28:32.612Z,0.00
2019-03-13T04:29:32.554Z,0.00
2019-03-13T04:30:32.585Z,0.00
2019-03-13T04:31:39.472Z,0.00
2019-03-13T04:32:32.523Z,0.00
2019-03-13T04:33:34.596Z,0.00
2019-03-13T04:34:32.494Z,0.00
2019-03-13T04:35:33.544Z,0.00
2019-03-13T04:36:32.480Z,0.00
2019-03-13T04:37:32.465Z,0.00
2019-03-13T04:38:32.502Z,0.00
2019-03-13T04:39:32.435Z,0.00
2019-03-13T04:40:32.526Z,0.00
2019-03-13T04:41:32.426Z,0.00
2019-03-13T04:42:32.409Z,0.00
2019-03-13T04:43:32.429Z,0.00
2019-03-13T04:44:32.376Z,0.00
2019-03-13T04:45:32.458Z,0.00
2019-03-13T04:46:32.368Z,0.00
2019-03-13T04:47:32.348Z,0.00
2019-03-13T04:48:32.349Z,0.00
2019-03-13T04:49:32.429Z,0.00
2019-03-13T04:50:32.320Z,0.00
2019-03-13T04:51:34.370Z,0.00
2019-03-13T04:52:32.301Z,0.00
2019-03-13T04:53:32.291Z,0.00
2019-03-13T04:54:32.382Z,0.00
2019-03-13T04:55:32.263Z,0.00
2019-03-13T04:56:32.356Z,0.00
2019-03-13T04:57:32.233Z,0.00
2019-03-13T04:58:32.234Z,0.00
2019-03-13T04:59:32.231Z,0.00
2019-03-13T05:00:32.286Z,0.00
2019-03-13T05:01:32.216Z,0.00
2019-03-13T05:02:32.225Z,0.00
2019-03-13T05:03:32.185Z,0.00
2019-03-13T05:04:32.169Z,0.00
2019-03-13T05:05:32.232Z,0.00
2019-03-13T05:06:32.156Z,0.00
2019-03-13T05:07:33.187Z,0.00
2019-03-13T05:08:40.522Z,0.00
2019-03-13T05:09:33.087Z,0.00
2019-03-13T05:10:33.188Z,0.00
2019-03-13T05:11:32.119Z,0.00
2019-03-13T05:12:32.100Z,0.00
2019-03-13T05:13:32.050Z,4.00
2019-03-13T05:14:32.830Z,4.00
2019-03-13T05:15:32.100Z,8.00
2019-03-13T05:16:32.032Z,4.00
2019-03-13T05:17:32.042Z,8.00
2019-03-13T05:18:32.002Z,8.00
2019-03-13T05:19:31.981Z,8.00
2019-03-13T05:20:31.974Z,8.00
2019-03-13T05:21:33.062Z,12.00
2019-03-13T05:22:31.974Z,16.00
2019-03-13T05:23:32.964Z,20.00
2019-03-13T05:24:31.924Z,24.00
2019-03-13T05:25:31.984Z,24.00
2019-03-13T05:26:31.915Z,28.00
2019-03-13T05:27:31.915Z,36.00
2019-03-13T05:28:31.876Z,40.00
2019-03-13T05:29:31.956Z,44.00
2019-03-13T05:30:31.856Z,52.00
2019-03-13T05:31:31.926Z,60.00
2019-03-13T05:32:31.847Z,64.00
2019-03-13T05:33:31.918Z,68.00
2019-03-13T05:34:31.828Z,76.00
2019-03-13T05:35:31.812Z,88.00
2019-03-13T05:36:31.808Z,100.00
2019-03-13T05:37:31.799Z,116.00
2019-03-13T05:38:31.779Z,116.00
2019-03-13T05:39:31.840Z,132.00
2019-03-13T05:40:32.831Z,144.00
2019-03-13T05:41:31.760Z,160.00
2019-03-13T05:42:33.781Z,172.00
2019-03-13T05:43:31.722Z,188.00
2019-03-13T05:44:33.822Z,204.00
2019-03-13T05:45:31.704Z,220.00
2019-03-13T05:46:31.703Z,232.00
2019-03-13T05:47:32.702Z,244.00
2019-03-13T05:48:31.663Z,260.00
2019-03-13T05:49:32.731Z,272.00
2019-03-13T05:50:31.816Z,288.00
2019-03-13T05:51:31.685Z,304.00
2019-03-13T05:52:32.647Z,316.00
2019-03-13T05:53:31.595Z,336.00
2019-03-13T05:54:31.656Z,352.00
2019-03-13T05:55:31.577Z,368.00
2019-03-13T05:56:31.588Z,384.00
2019-03-13T05:57:31.558Z,400.00
2019-03-13T05:58:31.633Z,416.00
2019-03-13T05:59:31.529Z,432.00
2019-03-13T06:00:31.558Z,448.00
2019-03-13T06:01:31.513Z,460.00
2019-03-13T06:02:31.499Z,480.00
2019-03-13T06:03:31.560Z,568.00
2019-03-13T06:04:31.470Z,556.00
2019-03-13T06:05:31.504Z,672.00
2019-03-13T06:06:31.470Z,684.00
2019-03-13T06:07:31.466Z,712.00
2019-03-13T06:08:31.432Z,804.00
2019-03-13T06:09:31.464Z,820.00
2019-03-13T06:10:31.405Z,948.00
2019-03-13T06:11:31.404Z,1012.00
2019-03-13T06:12:31.394Z,1016.00
2019-03-13T06:13:31.445Z,936.00
2019-03-13T06:14:31.386Z,852.00
2019-03-13T06:15:31.385Z,808.00
2019-03-13T06:16:31.345Z,680.00
2019-03-13T06:17:32.395Z,744.00
2019-03-13T06:18:31.326Z,756.00
2019-03-13T06:19:32.381Z,828.00
2019-03-13T06:20:31.307Z,828.00
2019-03-13T06:21:31.387Z,688.00
2019-03-13T06:22:31.298Z,764.00
2019-03-13T06:23:31.240Z,1020.00
2019-03-13T06:24:31.259Z,1008.00
2019-03-13T06:25:32.351Z,1132.00
2019-03-13T06:26:31.240Z,1196.00
2019-03-13T06:27:31.341Z,1084.00
2019-03-13T06:28:31.260Z,1200.00
2019-03-13T06:29:31.915Z,1048.00
2019-03-13T06:30:31.202Z,836.00
2019-03-13T06:31:31.181Z,1416.00
2019-03-13T06:32:31.262Z,1504.00
2019-03-13T06:33:31.202Z,1432.00
2019-03-13T06:34:31.133Z,1088.00
2019-03-13T06:35:31.433Z,1324.00
2019-03-13T06:36:31.093Z,1036.00
2019-03-13T06:37:31.225Z,1128.00
2019-03-13T06:38:31.094Z,1768.00
2019-03-13T06:39:32.120Z,2144.00
2019-03-13T06:40:31.065Z,1288.00
2019-03-13T06:41:31.146Z,1252.00
2019-03-13T06:42:31.055Z,1228.00
2019-03-13T06:43:31.077Z,1088.00
2019-03-13T06:44:31.037Z,1204.00
2019-03-13T06:45:31.117Z,1304.00
2019-03-13T06:46:30.998Z,1180.00
2019-03-13T06:47:32.018Z,1296.00
2019-03-13T06:48:30.969Z,2428.00
2019-03-13T06:49:30.987Z,1788.00
2019-03-13T06:50:31.059Z,2768.00
2019-03-13T06:51:30.933Z,2736.00
2019-03-13T06:52:31.821Z,2140.00
2019-03-13T06:53:30.911Z,1672.00
2019-03-13T06:54:31.117Z,1944.00
2019-03-13T06:55:30.936Z,1404.00
2019-03-13T06:56:31.156Z,1376.00
2019-03-13T06:57:30.929Z,1852.00
2019-03-13T06:58:30.916Z,4204.00
2019-03-13T06:59:30.864Z,2524.00
2019-03-13T07:00:30.951Z,1724.00
2019-03-13T07:01:30.834Z,2080.00
2019-03-13T07:02:30.927Z,2316.00
2019-03-13T07:03:30.814Z,1436.00
2019-03-13T07:04:31.836Z,1248.00
2019-03-13T07:05:30.796Z,1260.00
2019-03-13T07:06:37.496Z,1216.00
2019-03-13T07:07:30.789Z,1548.00
2019-03-13T07:08:31.805Z,1468.00
2019-03-13T07:09:30.749Z,1728.00
2019-03-13T07:10:30.738Z,2688.00
2019-03-13T07:11:30.719Z,2956.00
2019-03-13T07:12:31.830Z,3436.00
2019-03-13T07:13:30.701Z,2996.00
2019-03-13T07:14:30.690Z,2144.00
2019-03-13T07:15:30.681Z,1848.00
2019-03-13T07:16:31.752Z,1992.00
2019-03-13T07:17:30.671Z,2452.00
2019-03-13T07:18:31.681Z,2084.00
2019-03-13T07:19:30.632Z,2308.00
2019-03-13T07:20:30.626Z,2932.00
2019-03-13T07:21:30.603Z,2892.00
2019-03-13T07:22:32.165Z,3492.00
2019-03-13T07:23:30.584Z,3404.00
2019-03-13T07:24:30.682Z,3956.00
2019-03-13T07:25:30.565Z,3716.00
2019-03-13T07:26:30.594Z,3188.00
2019-03-13T07:27:30.555Z,3084.00
2019-03-13T07:28:31.568Z,3568.00
2019-03-13T07:29:30.580Z,3204.00
2019-03-13T07:30:30.577Z,4016.00
2019-03-13T07:31:30.497Z,3952.00
2019-03-13T07:32:30.570Z,3476.00
2019-03-13T07:33:30.468Z,2728.00
2019-03-13T07:34:31.785Z,2872.00
2019-03-13T07:35:30.448Z,3688.00
2019-03-13T07:36:30.439Z,3804.00
2019-03-13T07:37:30.499Z,4444.00
2019-03-13T07:38:30.429Z,4052.00
2019-03-13T07:39:31.519Z,3152.00
2019-03-13T07:40:30.402Z,3368.00
2019-03-13T07:41:30.390Z,5052.00
2019-03-13T07:42:30.393Z,4608.00
2019-03-13T07:43:31.398Z,4212.00
2019-03-13T07:44:30.352Z,3832.00
2019-03-13T07:45:30.412Z,2896.00
2019-03-13T07:46:30.436Z,3292.00
2019-03-13T07:47:30.384Z,3664.00
2019-03-13T07:48:30.313Z,3136.00
2019-03-13T07:49:30.376Z,2788.00
2019-03-13T07:50:30.284Z,2468.00
2019-03-13T07:51:31.325Z,2868.00
2019-03-13T07:52:32.692Z,3496.00
2019-03-13T07:53:30.387Z,3944.00
2019-03-13T07:54:30.246Z,3540.00
2019-03-13T07:55:30.276Z,4508.00
2019-03-13T07:56:30.201Z,3172.00
2019-03-13T07:57:30.217Z,3592.00
2019-03-13T07:58:30.177Z,3712.00
2019-03-13T07:59:31.298Z,4720.00
2019-03-13T08:00:30.169Z,3972.00
2019-03-13T08:01:30.172Z,4360.00
2019-03-13T08:02:30.181Z,5928.00
2019-03-13T08:03:31.247Z,6292.00
2019-03-13T08:04:30.110Z,6432.00
2019-03-13T08:05:32.208Z,5660.00
2019-03-13T08:06:30.112Z,5220.00
2019-03-13T08:07:31.111Z,5692.00
2019-03-13T08:08:30.202Z,5876.00
2019-03-13T08:09:30.062Z,5848.00
2019-03-13T08:10:30.083Z,4480.00
2019-03-13T08:11:30.043Z,5000.00
2019-03-13T08:12:31.053Z,3760.00
2019-03-13T08:13:30.033Z,5980.00
2019-03-13T08:14:30.064Z,5792.00
2019-03-13T08:15:29.996Z,6380.00
2019-03-13T08:16:29.996Z,5596.00
2019-03-13T08:17:29.977Z,6512.00
2019-03-13T08:18:32.027Z,5544.00
2019-03-13T08:19:29.946Z,5224.00
2019-03-13T08:20:29.957Z,4980.00
2019-03-13T08:21:29.937Z,3868.00
2019-03-13T08:22:30.934Z,3236.00
2019-03-13T08:23:29.928Z,3488.00
2019-03-13T08:24:29.920Z,5564.00
2019-03-13T08:25:29.889Z,4612.00
2019-03-13T08:26:30.920Z,6228.00
2019-03-13T08:27:29.900Z,6552.00
2019-03-13T08:28:29.971Z,10300.00
2019-03-13T08:29:29.867Z,6068.00
2019-03-13T08:30:29.888Z,7088.00
2019-03-13T08:31:29.925Z,4484.00
2019-03-13T08:32:29.812Z,4884.00
2019-03-13T08:33:29.912Z,4476.00
2019-03-13T08:34:29.794Z,5492.00
2019-03-13T08:35:29.904Z,7996.00
2019-03-13T08:36:29.774Z,14432.00
2019-03-13T08:37:29.834Z,9324.00
2019-03-13T08:38:29.754Z,9000.00
2019-03-13T08:39:29.764Z,12320.00
2019-03-13T08:40:29.723Z,11528.00
2019-03-13T08:41:29.806Z,11940.00
2019-03-13T08:42:29.698Z,13136.00
2019-03-13T08:43:29.777Z,11740.00
2019-03-13T08:44:29.668Z,12512.00
2019-03-13T08:45:29.778Z,16096.00
2019-03-13T08:46:29.652Z,21248.00
2019-03-13T08:47:30.729Z,25920.00
2019-03-13T08:48:29.729Z,20640.00
2019-03-13T08:49:31.702Z,5112.00
2019-03-13T08:50:29.600Z,15392.00
2019-03-13T08:51:29.595Z,27648.00
2019-03-13T08:52:36.488Z,24704.00
2019-03-13T08:53:29.583Z,36256.00
2019-03-13T08:54:29.584Z,49088.00
2019-03-13T08:55:29.542Z,54400.00
2019-03-13T08:56:36.442Z,48512.00
2019-03-13T08:57:29.522Z,29504.00
2019-03-13T08:58:29.594Z,33088.00
2019-03-13T08:59:29.505Z,66304.00
2019-03-13T09:00:29.595Z,56544.00
2019-03-13T09:01:29.484Z,75328.00
2019-03-13T09:02:29.447Z,74848.00
2019-03-13T09:03:29.537Z,8084.00
2019-03-13T09:04:29.446Z,6712.00
2019-03-13T09:05:29.527Z,56832.00
2019-03-13T09:06:29.416Z,6712.00
2019-03-13T09:07:29.417Z,5396.00
2019-03-13T09:08:29.417Z,2808.00
2019-03-13T09:09:29.509Z,28192.00
2019-03-13T09:10:29.390Z,12100.00
2019-03-13T09:11:31.389Z,43904.00
2019-03-13T09:12:29.362Z,6480.00
2019-03-13T09:13:29.371Z,5876.00
2019-03-13T09:14:29.488Z,22720.00
2019-03-13T09:15:29.333Z,63488.00
2019-03-13T09:16:30.401Z,62272.00
2019-03-13T09:17:29.312Z,12004.00
2019-03-13T09:18:29.313Z,8024.00
2019-03-13T09:19:29.395Z,18368.00
2019-03-13T09:20:29.265Z,5996.00
2019-03-13T09:21:29.314Z,23872.00
2019-03-13T09:22:29.257Z,31136.00
2019-03-13T09:23:29.255Z,22272.00
2019-03-13T09:24:29.229Z,7420.00
2019-03-13T09:25:30.438Z,24640.00
2019-03-13T09:26:29.206Z,4740.00
2019-03-13T09:27:29.228Z,5328.00
2019-03-13T09:28:29.187Z,6168.00
2019-03-13T09:29:29.300Z,7452.00
2019-03-13T09:30:29.251Z,8784.00
2019-03-13T09:31:29.148Z,4808.00
2019-03-13T09:32:29.201Z,5528.00
2019-03-13T09:33:29.133Z,3992.00
2019-03-13T09:34:29.110Z,4280.00
2019-03-13T09:35:29.099Z,6176.00
2019-03-13T09:36:29.141Z,53088.00
2019-03-13T09:37:29.088Z,67552.00
2019-03-13T09:38:30.160Z,66752.00
2019-03-13T09:39:29.053Z,10776.00
2019-03-13T09:40:29.113Z,63456.00
2019-03-13T09:41:29.034Z,4020.00
2019-03-13T09:42:31.093Z,38336.00
2019-03-13T09:43:29.016Z,11112.00
2019-03-13T09:44:30.105Z,6872.00
2019-03-13T09:45:29.055Z,4912.00
2019-03-13T09:46:29.945Z,6520.00
2019-03-13T09:47:28.986Z,8632.00
2019-03-13T09:48:28.969Z,4504.00
2019-03-13T09:49:29.028Z,7296.00
2019-03-13T09:50:28.928Z,5424.00
2019-03-13T09:51:28.958Z,5024.00
2019-03-13T09:52:28.909Z,3956.00
2019-03-13T09:53:28.939Z,8904.00
2019-03-13T09:54:28.879Z,10380.00
2019-03-13T09:55:29.959Z,9288.00
2019-03-13T09:56:28.860Z,7048.00
2019-03-13T09:57:28.988Z,11036.00
2019-03-13T09:58:28.955Z,6896.00
2019-03-13T09:59:42.412Z,6120.00
2019-03-13T10:00:29.824Z,5396.00
2019-03-13T10:01:28.807Z,5260.00
2019-03-13T10:02:28.793Z,3264.00
2019-03-13T10:03:28.884Z,2556.00
2019-03-13T10:04:28.795Z,1916.00
2019-03-13T10:05:29.844Z,2168.00
2019-03-13T10:06:28.745Z,1972.00
2019-03-13T10:07:28.757Z,2372.00
2019-03-13T10:08:28.724Z,3964.00
2019-03-13T10:09:28.863Z,3740.00
2019-03-13T10:10:28.721Z,4256.00
2019-03-13T10:11:28.728Z,4940.00
2019-03-13T10:12:28.692Z,5760.00
2019-03-13T10:13:35.518Z,6216.00
2019-03-13T10:14:28.689Z,5212.00
2019-03-13T10:15:28.799Z,6096.00
2019-03-13T10:16:28.649Z,6536.00
2019-03-13T10:17:28.680Z,8816.00
2019-03-13T10:18:28.621Z,6616.00
2019-03-13T10:19:29.631Z,8636.00
2019-03-13T10:20:28.591Z,9536.00
2019-03-13T10:21:28.603Z,10208.00
2019-03-13T10:22:28.583Z,9464.00
2019-03-13T10:23:28.546Z,7416.00
2019-03-13T10:24:28.646Z,7768.00
2019-03-13T10:25:28.524Z,6356.00
2019-03-13T10:26:28.562Z,8900.00
2019-03-13T10:27:28.505Z,6556.00
2019-03-13T10:28:28.603Z,6108.00
2019-03-13T10:29:28.509Z,5392.00
2019-03-13T10:30:28.517Z,5532.00
2019-03-13T10:31:28.467Z,5640.00
2019-03-13T10:32:30.497Z,7464.00
2019-03-13T10:33:28.438Z,6572.00
2019-03-13T10:34:28.529Z,7964.00
2019-03-13T10:35:28.433Z,6276.00
2019-03-13T10:36:28.419Z,5204.00
2019-03-13T10:37:28.399Z,6708.00
2019-03-13T10:38:28.461Z,6068.00
2019-03-13T10:39:28.411Z,4824.00
2019-03-13T10:40:28.391Z,4736.00
2019-03-13T10:41:28.351Z,4532.00
2019-03-13T10:42:28.438Z,4116.00
2019-03-13T10:43:28.333Z,4788.00
2019-03-13T10:44:28.334Z,6900.00
2019-03-13T10:45:28.323Z,5780.00
2019-03-13T10:46:28.404Z,5932.00
2019-03-13T10:47:28.285Z,5132.00
2019-03-13T10:48:28.336Z,4312.00
2019-03-13T10:49:28.269Z,5552.00
2019-03-13T10:50:28.276Z,7124.00
2019-03-13T10:51:28.325Z,9288.00
2019-03-13T10:52:28.247Z,6924.00
2019-03-13T10:53:28.277Z,5572.00
2019-03-13T10:54:28.231Z,5972.00
2019-03-13T10:55:28.218Z,6184.00
2019-03-13T10:56:28.199Z,5596.00
2019-03-13T10:57:28.259Z,5584.00
2019-03-13T10:58:28.177Z,4568.00
2019-03-13T10:59:35.051Z,5188.00
2019-03-13T11:00:28.171Z,6532.00
2019-03-13T11:01:28.141Z,6092.00
2019-03-13T11:02:28.134Z,6016.00
2019-03-13T11:03:35.001Z,5692.00
2019-03-13T11:04:28.113Z,6112.00
2019-03-13T11:05:28.143Z,5756.00
2019-03-13T11:06:28.084Z,6724.00
2019-03-13T11:07:28.843Z,7324.00
2019-03-13T11:08:28.224Z,9100.00
2019-03-13T11:09:29.098Z,6312.00
2019-03-13T11:10:28.056Z,4712.00
2019-03-13T11:11:28.100Z,4748.00
2019-03-13T11:12:28.005Z,5492.00
2019-03-13T11:13:28.036Z,5768.00
2019-03-13T11:14:27.988Z,5420.00
2019-03-13T11:15:28.022Z,5388.00
2019-03-13T11:16:27.970Z,6364.00
2019-03-13T11:17:27.958Z,6240.00
2019-03-13T11:18:27.942Z,6604.00
2019-03-13T11:19:27.950Z,6988.00
2019-03-13T11:20:27.940Z,7100.00
2019-03-13T11:21:27.980Z,6708.00
2019-03-13T11:22:27.900Z,6836.00
2019-03-13T11:23:28.942Z,6184.00
2019-03-13T11:24:27.871Z,6260.00
2019-03-13T11:25:27.892Z,5824.00
2019-03-13T11:26:27.852Z,5536.00
2019-03-13T11:27:27.893Z,5404.00
2019-03-13T11:28:27.853Z,5136.00
2019-03-13T11:29:28.455Z,5272.00
2019-03-13T11:30:27.935Z,6500.00
2019-03-13T11:31:27.794Z,5228.00
2019-03-13T11:32:27.827Z,4368.00
2019-03-13T11:33:27.785Z,5124.00
2019-03-13T11:34:27.866Z,4496.00
2019-03-13T11:35:27.757Z,4092.00
2019-03-13T11:36:27.932Z,4616.00
2019-03-13T11:37:27.729Z,3636.00
2019-03-13T11:38:27.741Z,3740.00
2019-03-13T11:39:28.828Z,3824.00
2019-03-13T11:40:27.709Z,3728.00
2019-03-13T11:41:34.489Z,4176.00
2019-03-13T11:42:27.673Z,4652.00
2019-03-13T11:43:28.711Z,5128.00
2019-03-13T11:44:28.562Z,4660.00
2019-03-13T11:45:27.652Z,4420.00
2019-03-13T11:46:27.693Z,4064.00
2019-03-13T11:47:27.631Z,3816.00
2019-03-13T11:48:27.735Z,3632.00
2019-03-13T11:49:27.595Z,3616.00
2019-03-13T11:50:27.614Z,3668.00
2019-03-13T11:51:34.485Z,3484.00
2019-03-13T11:52:27.575Z,3540.00
2019-03-13T11:53:34.531Z,3724.00
2019-03-13T11:54:27.548Z,3868.00
2019-03-13T11:55:27.579Z,4532.00
2019-03-13T11:56:27.539Z,3788.00
2019-03-13T11:57:28.558Z,4024.00
2019-03-13T11:58:27.508Z,4076.00
2019-03-13T11:59:27.569Z,4024.00
2019-03-13T12:00:27.471Z,4460.00
2019-03-13T12:01:27.480Z,4344.00
2019-03-13T12:02:27.470Z,3468.00
2019-03-13T12:03:27.452Z,5124.00
2019-03-13T12:04:27.511Z,5064.00
2019-03-13T12:05:27.431Z,5388.00
2019-03-13T12:06:27.432Z,5100.00
2019-03-13T12:07:28.443Z,4232.00
2019-03-13T12:08:27.392Z,3604.00
2019-03-13T12:09:27.453Z,4692.00
2019-03-13T12:10:27.374Z,3888.00
2019-03-13T12:11:27.424Z,4120.00
2019-03-13T12:12:27.347Z,4184.00
2019-03-13T12:13:28.346Z,4588.00
2019-03-13T12:14:27.316Z,4452.00
2019-03-13T12:15:27.357Z,3116.00
2019-03-13T12:16:27.306Z,2912.00
2019-03-13T12:17:27.287Z,4096.00
2019-03-13T12:18:27.278Z,4664.00
2019-03-13T12:19:27.338Z,3616.00
2019-03-13T12:20:27.268Z,3776.00
2019-03-13T12:21:27.310Z,3588.00
2019-03-13T12:22:27.211Z,3684.00
2019-03-13T12:23:27.220Z,4044.00
2019-03-13T12:24:27.271Z,3476.00
2019-03-13T12:25:27.193Z,5312.00
2019-03-13T12:26:27.242Z,4332.00
2019-03-13T12:27:27.194Z,4944.00
2019-03-13T12:28:27.163Z,4856.00
2019-03-13T12:29:27.144Z,5132.00
2019-03-13T12:30:27.177Z,4628.00
2019-03-13T12:31:27.135Z,3932.00
2019-03-13T12:32:28.135Z,4816.00
2019-03-13T12:33:27.105Z,4536.00
2019-03-13T12:34:27.146Z,4700.00
2019-03-13T12:35:27.078Z,4216.00